Time;durP1;ratioP1;P1;durP2;ratioP2;P2;SDS_P1;SDS_P2;PMS_P1;PMS_P2;Temp;Humidity;BMP_temperature;BMP_pressure;BME280_temperature;BME280_humidity;BME280_pressure;Samples;Min_cycle;Max_cycle;Signal;HPM_P1;HPM_P2
2022/05/29 00:02:22;;;;;;;3.20;1.63;;;10.60;65.50;;;;;;5050258;28;20938;-66
2022/05/29 00:04:48;;;;;;;3.83;1.77;;;10.60;66.00;;;;;;5050204;28;20504;-67
2022/05/29 00:07:17;;;;;;;4.00;2.20;;;10.60;65.90;;;;;;5048723;28;20972;-67
2022/05/29 00:09:47;;;;;;;4.45;1.88;;;10.50;65.80;;;;;;5049767;28;20461;-67
2022/05/29 00:12:14;;;;;;;5.68;2.25;;;10.40;65.70;;;;;;5050033;28;20416;-67
2022/05/29 00:14:43;;;;;;;4.68;2.10;;;10.40;66.50;;;;;;5049087;28;20437;-68
2022/05/29 00:17:11;;;;;;;4.70;2.00;;;10.30;66.50;;;;;;5049239;28;20453;-68
2022/05/29 00:19:37;;;;;;;3.97;2.13;;;10.20;67.10;;;;;;5049885;28;20429;-68
2022/05/29 00:22:05;;;;;;;2.63;1.90;;;10.20;67.30;;;;;;5049353;28;20409;-68
2022/05/29 00:24:31;;;;;;;5.65;1.58;;;10.20;68.20;;;;;;5049892;28;20862;-68
2022/05/29 00:26:58;;;;;;;2.08;1.85;;;10.20;67.70;;;;;;5049339;28;20475;-68
2022/05/29 00:29:25;;;;;;;4.93;2.30;;;10.10;67.60;;;;;;5048366;28;20433;-67
2022/05/29 00:31:53;;;;;;;4.57;2.00;;;10.10;68.50;;;;;;5049534;28;20812;-68
2022/05/29 00:34:20;;;;;;;4.82;2.40;;;10.10;69.20;;;;;;5049778;28;20480;-68
2022/05/29 00:36:47;;;;;;;3.67;2.10;;;10.10;69.10;;;;;;5049639;28;20413;-67
2022/05/29 00:39:16;;;;;;;6.00;2.58;;;10.00;70.30;;;;;;5049591;28;20479;-66
2022/05/29 00:41:43;;;;;;;3.33;2.10;;;10.00;69.60;;;;;;5049693;28;21187;-66
2022/05/29 00:44:14;;;;;;;5.55;2.20;;;10.10;69.80;;;;;;5048504;28;20980;-67
2022/05/29 00:46:45;;;;;;;5.45;2.10;;;10.10;69.70;;;;;;5048657;28;20416;-66
2022/05/29 00:49:15;;;;;;;5.25;2.25;;;10.10;69.30;;;;;;5049364;28;20421;-66
2022/05/29 00:51:46;;;;;;;5.95;2.60;;;10.00;69.90;;;;;;5049398;28;20506;-67
2022/05/29 00:54:14;;;;;;;7.55;2.20;;;10.00;70.20;;;;;;5049284;28;20471;-67
2022/05/29 00:56:41;;;;;;;5.10;2.07;;;10.00;70.00;;;;;;5048943;28;20413;-68
2022/05/29 00:59:15;;;;;;;3.70;2.08;;;10.00;70.40;;;;;;5047795;28;20432;-67
2022/05/29 01:01:42;;;;;;;3.80;2.20;;;9.90;70.90;;;;;;5049105;28;20985;-66
2022/05/29 01:04:09;;;;;;;4.75;2.15;;;9.90;71.00;;;;;;5049038;28;21065;-67
2022/05/29 01:06:37;;;;;;;5.10;2.38;;;9.80;71.60;;;;;;5048780;28;20431;-68
2022/05/29 01:09:07;;;;;;;4.95;2.47;;;9.80;71.30;;;;;;5048758;28;20425;-68
2022/05/29 01:11:51;;;;;;;5.70;2.20;;;9.70;71.50;;;;;;5047645;28;20436;-65
2022/05/29 01:14:26;;;;;;;5.43;2.63;;;9.70;72.10;;;;;;5048876;28;20474;-66
2022/05/29 01:17:03;;;;;;;4.80;2.20;;;9.70;72.70;;;;;;5048610;28;20421;-66
2022/05/29 01:20:07;;;;;;;4.68;2.50;;;9.70;72.50;;;;;;5048961;28;20417;-67
2022/05/29 01:23:08;;;;;;;4.45;2.80;;;9.70;72.70;;;;;;5048780;28;20458;-68
2022/05/29 01:26:20;;;;;;;6.03;2.70;;;9.60;73.00;;;;;;5048562;28;20422;-66
2022/05/29 01:28:53;;;;;;;5.72;2.63;;;9.70;73.20;;;;;;5021746;28;20432;-66
2022/05/29 01:31:33;;;;;;;6.38;2.40;;;9.60;73.10;;;;;;5048425;28;20450;-66
2022/05/29 01:34:25;;;;;;;4.23;2.20;;;9.60;73.40;;;;;;5046951;28;20440;-67
2022/05/29 01:37:00;;;;;;;5.05;2.20;;;9.60;74.00;;;;;;5048046;28;21051;-67
2022/05/29 01:39:32;;;;;;;4.30;2.50;;;9.50;73.90;;;;;;5048343;28;20994;-66
2022/05/29 01:42:02;;;;;;;4.13;2.30;;;9.50;73.80;;;;;;5047451;28;20561;-67
2022/05/29 01:44:39;;;;;;;5.15;2.38;;;9.50;74.10;;;;;;5048413;28;20421;-67
2022/05/29 01:47:13;;;;;;;5.33;2.70;;;9.50;73.80;;;;;;5047983;28;20413;-66
2022/05/29 01:49:45;;;;;;;5.65;3.17;;;9.50;73.90;;;;;;5047279;28;20460;-68
2022/05/29 01:52:16;;;;;;;4.72;2.50;;;9.50;74.30;;;;;;5048336;28;21089;-68
2022/05/29 01:54:47;;;;;;;5.95;3.50;;;9.50;74.00;;;;;;5046459;28;20433;-67
2022/05/29 01:57:17;;;;;;;4.22;2.50;;;9.50;74.20;;;;;;5048049;28;20524;-67
2022/05/29 01:59:51;;;;;;;5.90;2.60;;;9.50;74.60;;;;;;5048300;28;20979;-67
2022/05/29 02:02:23;;;;;;;3.83;2.63;;;9.50;74.60;;;;;;5048250;28;20405;-68
2022/05/29 02:04:54;;;;;;;6.47;2.70;;;9.50;75.20;;;;;;5048396;28;20535;-67
2022/05/29 02:10:14;;;;;;;4.50;2.78;;;9.60;74.60;;;;;;5046155;28;20481;-67
2022/05/29 02:12:57;;;;;;;3.60;2.33;;;9.60;75.30;;;;;;5044892;28;20429;-66
2022/05/29 02:15:32;;;;;;;4.78;2.83;;;9.60;75.70;;;;;;5047839;28;20954;-66
2022/05/29 02:18:01;;;;;;;5.28;2.50;;;9.60;74.90;;;;;;5047469;28;20911;-67
2022/05/29 02:20:33;;;;;;;4.78;2.70;;;9.60;75.30;;;;;;5047892;28;20444;-67
2022/05/29 02:23:05;;;;;;;5.30;2.30;;;9.70;75.50;;;;;;5048116;28;20433;-67
2022/05/29 02:25:33;;;;;;;5.70;2.80;;;9.70;75.30;;;;;;5046071;28;20942;-67
2022/05/29 02:28:06;;;;;;;5.13;2.70;;;9.70;74.80;;;;;;5046637;28;20432;-67
2022/05/29 02:30:42;;;;;;;5.17;2.40;;;9.60;75.00;;;;;;5047348;28;20516;-67
2022/05/29 02:33:17;;;;;;;5.07;2.63;;;9.60;75.90;;;;;;5047802;28;20516;-67
2022/05/29 02:35:53;;;;;;;4.80;2.63;;;9.50;75.70;;;;;;5047831;28;20504;-66
2022/05/29 02:38:26;;;;;;;4.28;2.65;;;9.50;76.30;;;;;;5047059;28;20960;-67
2022/05/29 02:40:58;;;;;;;5.80;3.00;;;9.40;76.10;;;;;;5047423;28;20478;-67
2022/05/29 02:43:33;;;;;;;4.60;2.70;;;9.40;76.70;;;;;;5047803;28;20457;-67
2022/05/29 02:46:10;;;;;;;5.47;3.30;;;9.30;76.50;;;;;;5050183;28;20457;-67
2022/05/29 02:48:51;;;;;;;4.25;3.00;;;9.20;77.20;;;;;;5051650;28;20935;-67
2022/05/29 02:51:24;;;;;;;3.25;2.58;;;9.20;77.50;;;;;;5052116;28;20498;-67
2022/05/29 02:53:50;;;;;;;5.28;3.30;;;9.20;77.50;;;;;;5050561;28;20486;-67
2022/05/29 02:56:18;;;;;;;7.03;2.65;;;9.20;77.30;;;;;;5051059;28;20420;-67
2022/05/29 02:58:48;;;;;;;4.33;2.50;;;9.10;77.40;;;;;;5051784;28;20594;-67
2022/05/29 03:01:30;;;;;;;4.95;2.88;;;9.10;77.60;;;;;;5051553;28;20405;-67
2022/05/29 03:04:07;;;;;;;4.70;2.90;;;9.10;78.10;;;;;;5051518;28;20421;-66
2022/05/29 03:06:43;;;;;;;6.82;3.20;;;9.30;78.40;;;;;;5050997;28;20417;-66
2022/05/29 03:09:23;;;;;;;6.50;3.03;;;9.20;77.40;;;;;;5049947;28;20494;-66
2022/05/29 03:11:50;;;;;;;3.50;2.70;;;9.30;77.80;;;;;;5051315;28;20432;-66
2022/05/29 03:14:29;;;;;;;5.20;2.88;;;9.40;77.70;;;;;;5051524;28;20409;-66
2022/05/29 03:17:12;;;;;;;4.47;3.00;;;9.50;76.70;;;;;;5050842;28;20421;-67
2022/05/29 03:19:49;;;;;;;5.70;2.80;;;9.50;76.20;;;;;;5051461;28;20436;-67
2022/05/29 03:22:24;;;;;;;4.68;3.03;;;9.50;76.30;;;;;;5050388;28;20454;-66
2022/05/29 03:24:58;;;;;;;5.88;3.00;;;9.50;76.50;;;;;;5051267;28;20420;-67
2022/05/29 03:27:32;;;;;;;7.30;2.93;;;9.40;76.90;;;;;;5051226;28;20490;-66
2022/05/29 03:30:05;;;;;;;4.15;2.55;;;9.40;77.20;;;;;;5051239;28;20461;-66
2022/05/29 03:32:35;;;;;;;4.18;2.70;;;9.40;77.30;;;;;;5050763;28;20428;-67
2022/05/29 03:35:16;;;;;;;5.90;3.50;;;9.50;77.00;;;;;;5050668;28;20413;-66
2022/05/29 03:37:43;;;;;;;4.90;3.17;;;9.50;76.60;;;;;;5049500;28;20459;-67
2022/05/29 03:40:11;;;;;;;4.75;3.30;;;9.40;77.10;;;;;;5049073;28;21060;-67
2022/05/29 03:42:38;;;;;;;6.25;3.00;;;9.40;77.20;;;;;;5050575;28;20409;-67
2022/05/29 03:45:06;;;;;;;5.63;3.20;;;9.40;77.50;;;;;;5050624;28;20486;-67
2022/05/29 03:47:34;;;;;;;5.72;3.20;;;9.50;77.50;;;;;;5050205;28;20833;-67
2022/05/29 03:50:01;;;;;;;5.93;3.20;;;9.50;77.00;;;;;;5051679;28;20451;-67
2022/05/29 03:52:27;;;;;;;4.20;2.90;;;9.60;76.70;;;;;;5052350;28;20468;-66
2022/05/29 03:54:54;;;;;;;6.50;3.63;;;9.60;77.80;;;;;;5050353;28;20923;-67
2022/05/29 03:57:21;;;;;;;6.75;3.42;;;9.60;77.40;;;;;;5048915;28;20420;-67
2022/05/29 03:59:47;;;;;;;6.03;3.50;;;9.70;77.40;;;;;;5078887;22;20560;-68
2022/05/29 04:02:14;;;;;;;6.35;3.40;;;9.60;76.90;;;;;;5029639;28;20453;-68
2022/05/29 04:04:43;;;;;;;7.47;3.30;;;9.60;76.30;;;;;;5031290;28;20423;-68
2022/05/29 04:07:10;;;;;;;4.25;2.90;;;9.70;76.80;;;;;;5030241;28;20514;-68
2022/05/29 04:12:20;;;;;;;5.45;3.25;;;9.70;76.30;;;;;;5050123;28;20431;-68
2022/05/29 04:14:47;;;;;;;6.30;3.00;;;9.70;76.90;;;;;;5046915;28;20469;-68
2022/05/29 04:17:16;;;;;;;5.53;3.00;;;9.70;77.90;;;;;;5038318;28;20426;-68
2022/05/29 04:19:44;;;;;;;5.25;2.70;;;9.70;76.70;;;;;;5026489;28;20422;-68
2022/05/29 04:22:14;;;;;;;7.53;3.13;;;9.80;76.50;;;;;;5031073;28;20436;-68
2022/05/29 04:24:41;;;;;;;5.93;3.00;;;9.80;76.90;;;;;;5038025;28;20944;-68
2022/05/29 04:27:10;;;;;;;5.03;3.10;;;9.70;76.20;;;;;;5045353;28;20433;-68
2022/05/29 04:29:37;;;;;;;6.65;3.00;;;9.70;76.10;;;;;;5037521;28;20444;-68
2022/05/29 04:34:52;;;;;;;4.03;2.80;;;9.70;76.10;;;;;;5024741;28;20473;-68
2022/05/29 04:37:19;;;;;;;7.50;3.50;;;9.70;76.20;;;;;;5026068;28;20837;-68
2022/05/29 04:39:46;;;;;;;4.97;3.37;;;9.80;75.50;;;;;;5032640;28;20501;-68
2022/05/29 04:42:12;;;;;;;5.53;3.30;;;9.80;76.10;;;;;;5040318;28;20973;-68
2022/05/29 04:44:39;;;;;;;5.82;3.10;;;9.80;76.80;;;;;;5046290;28;20417;-69
2022/05/29 04:47:06;;;;;;;5.97;2.85;;;9.80;76.00;;;;;;5045945;28;20425;-69
2022/05/29 04:49:32;;;;;;;5.65;3.15;;;9.90;75.80;;;;;;5046522;28;20486;-68
2022/05/29 04:52:00;;;;;;;6.75;2.88;;;9.80;75.20;;;;;;5051131;28;20429;-69
2022/05/29 04:54:27;;;;;;;5.53;3.28;;;9.80;75.50;;;;;;5040409;28;20442;-68
2022/05/29 04:56:54;;;;;;;4.43;3.10;;;9.80;75.90;;;;;;5009116;28;20879;-68
2022/05/29 04:59:21;;;;;;;5.00;3.25;;;9.90;75.60;;;;;;5006967;28;20506;-68
2022/05/29 05:01:48;;;;;;;5.38;3.10;;;9.90;75.40;;;;;;5006584;28;20504;-67
2022/05/29 05:04:15;;;;;;;5.70;3.60;;;9.80;75.90;;;;;;5006174;28;20570;-68
2022/05/29 05:06:42;;;;;;;5.65;3.80;;;9.80;76.90;;;;;;5006661;28;20448;-68
2022/05/29 05:09:10;;;;;;;5.88;4.15;;;9.80;76.50;;;;;;5033227;28;20430;-68
2022/05/29 05:11:36;;;;;;;5.60;3.60;;;9.90;76.30;;;;;;5030876;28;20545;-68
2022/05/29 05:14:03;;;;;;;5.22;3.10;;;9.90;76.30;;;;;;5032899;28;21082;-68
2022/05/29 05:16:30;;;;;;;6.82;3.10;;;9.90;76.60;;;;;;5027087;28;20572;-68
2022/05/29 05:18:56;;;;;;;5.22;3.25;;;10.00;76.60;;;;;;5029512;28;20497;-68
2022/05/29 05:21:24;;;;;;;5.57;3.43;;;10.10;76.10;;;;;;5029355;28;20457;-68
2022/05/29 05:23:50;;;;;;;5.43;3.38;;;10.10;75.00;;;;;;5026727;28;21109;-67
2022/05/29 05:26:19;;;;;;;5.82;3.40;;;10.10;75.10;;;;;;5030546;28;20496;-69
2022/05/29 05:28:46;;;;;;;5.65;3.80;;;10.10;75.40;;;;;;5035657;28;20417;-69
2022/05/29 05:31:12;;;;;;;5.50;4.07;;;10.10;76.40;;;;;;5045482;28;20625;-68
2022/05/29 05:33:39;;;;;;;6.30;4.07;;;10.20;74.90;;;;;;5036785;28;20427;-70
2022/05/29 05:36:06;;;;;;;6.38;3.88;;;10.20;75.30;;;;;;5024837;28;20492;-69
2022/05/29 05:38:33;;;;;;;6.40;3.75;;;10.10;75.30;;;;;;5025373;28;20558;-68
2022/05/29 05:41:00;;;;;;;7.53;4.30;;;10.20;75.60;;;;;;5027927;28;20432;-68
2022/05/29 05:43:27;;;;;;;5.60;4.10;;;10.20;75.40;;;;;;5036721;28;20414;-67
2022/05/29 05:45:54;;;;;;;6.90;3.97;;;10.20;75.90;;;;;;5044708;28;20462;-68
2022/05/29 05:48:23;;;;;;;8.30;4.00;;;10.20;75.80;;;;;;5050390;28;20481;-68
2022/05/29 05:50:50;;;;;;;6.25;4.00;;;10.30;75.70;;;;;;5052129;28;20416;-68
2022/05/29 05:53:16;;;;;;;5.60;3.80;;;10.40;75.70;;;;;;5052422;28;20495;-68
2022/05/29 05:55:43;;;;;;;7.18;4.13;;;10.60;75.20;;;;;;5040990;28;20446;-67
2022/05/29 05:58:10;;;;;;;7.93;3.90;;;10.60;74.10;;;;;;5040683;28;20425;-69
2022/05/29 06:00:38;;;;;;;6.65;4.40;;;10.50;74.20;;;;;;5040346;28;20422;-68
2022/05/29 06:03:04;;;;;;;5.45;4.13;;;10.40;75.80;;;;;;5025071;28;20485;-68
2022/05/29 06:05:31;;;;;;;6.90;3.83;;;10.50;76.00;;;;;;5024637;28;20411;-68
2022/05/29 06:07:58;;;;;;;6.05;3.97;;;10.60;75.60;;;;;;5031494;28;20603;-69
2022/05/29 06:10:24;;;;;;;6.05;3.88;;;10.80;74.80;;;;;;5040426;28;20471;-69
2022/05/29 06:12:51;;;;;;;7.55;4.50;;;10.90;74.10;;;;;;5044487;28;20502;-68
2022/05/29 06:15:18;;;;;;;8.82;4.22;;;11.10;75.00;;;;;;5044349;28;20755;-68
2022/05/29 06:17:46;;;;;;;5.97;3.75;;;11.30;72.50;;;;;;5043633;28;20588;-69
2022/05/29 06:20:13;;;;;;;7.32;4.10;;;11.40;71.00;;;;;;5042313;28;20413;-69
2022/05/29 06:22:41;;;;;;;4.57;4.00;;;11.50;71.20;;;;;;5032876;28;20566;-68
2022/05/29 06:25:10;;;;;;;5.35;3.78;;;11.50;70.20;;;;;;5037741;28;20421;-69
2022/05/29 06:27:37;;;;;;;5.95;3.60;;;11.50;70.20;;;;;;5044231;28;20870;-69
2022/05/29 06:30:05;;;;;;;3.63;3.10;;;11.70;69.70;;;;;;5043865;28;20436;-69
2022/05/29 06:32:32;;;;;;;3.90;3.00;;;11.80;68.90;;;;;;5043898;28;20506;-69
2022/05/29 06:35:00;;;;;;;6.95;3.22;;;11.90;67.50;;;;;;5024684;28;20470;-68
2022/05/29 06:37:27;;;;;;;5.50;3.20;;;11.80;69.60;;;;;;5028320;28;20436;-69
2022/05/29 06:39:53;;;;;;;5.30;3.50;;;12.00;69.10;;;;;;5035461;28;20867;-68
2022/05/29 06:42:20;;;;;;;5.25;3.10;;;12.10;68.20;;;;;;5044054;28;20425;-69
2022/05/29 06:44:47;;;;;;;5.25;3.70;;;12.20;67.10;;;;;;5044027;28;20482;-68
2022/05/29 06:47:15;;;;;;;5.03;3.03;;;12.10;67.30;;;;;;5046131;28;20440;-69
2022/05/29 06:49:42;;;;;;;3.75;2.60;;;12.20;68.80;;;;;;5042781;28;20429;-69
2022/05/29 06:52:12;;;;;;;4.00;2.40;;;12.40;68.00;;;;;;5032829;28;20411;-69
2022/05/29 06:54:39;;;;;;;5.25;2.53;;;12.60;66.30;;;;;;5045109;28;20437;-69
2022/05/29 06:57:07;;;;;;;3.85;2.25;;;12.70;64.50;;;;;;5038343;28;20439;-69
2022/05/29 07:06:58;;;;;;;3.05;2.00;;;12.60;63.80;;;;;;5045100;28;20410;-68
2022/05/29 07:07:53;;;;;;;2.73;2.13;;;12.60;67.70;;;;;;5032266;28;20473;-68
2022/05/29 07:10:20;;;;;;;3.10;2.17;;;12.70;69.80;;;;;;5035963;28;21116;-68
2022/05/29 07:12:47;;;;;;;3.70;2.10;;;12.80;68.90;;;;;;5035363;28;20545;-68
2022/05/29 07:15:15;;;;;;;2.80;1.70;;;12.80;67.80;;;;;;5044045;28;20472;-69
2022/05/29 07:17:41;;;;;;;4.90;1.90;;;12.80;65.20;;;;;;5044293;28;20801;-69
2022/05/29 07:20:09;;;;;;;3.70;2.40;;;12.70;64.90;;;;;;5044809;28;20436;-69
2022/05/29 07:22:36;;;;;;;3.30;2.00;;;12.60;64.60;;;;;;5044634;28;20421;-68
2022/05/29 07:25:05;;;;;;;3.30;1.80;;;12.60;65.70;;;;;;5037914;28;20442;-69
2022/05/29 07:27:32;;;;;;;2.90;2.20;;;12.70;65.30;;;;;;5032663;28;20514;-69
2022/05/29 07:29:59;;;;;;;5.30;2.40;;;12.70;64.10;;;;;;5043792;28;20429;-69
2022/05/29 07:32:25;;;;;;;3.95;2.50;;;12.70;64.70;;;;;;5047171;28;20440;-67
2022/05/29 07:34:52;;;;;;;4.70;2.83;;;12.60;64.90;;;;;;5029757;28;20427;-67
2022/05/29 07:37:21;;;;;;;3.53;2.63;;;12.50;64.50;;;;;;5028267;28;20433;-67
2022/05/29 07:39:51;;;;;;;4.70;2.90;;;12.50;65.70;;;;;;5026956;28;20434;-67
2022/05/29 07:45:06;;;;;;;4.57;3.30;;;12.70;68.90;;;;;;5034299;28;20491;-69
2022/05/29 07:47:37;;;;;;;6.13;3.40;;;12.70;72.00;;;;;;5047236;28;20406;-71
2022/05/29 07:50:05;;;;;;;3.78;2.83;;;12.50;72.00;;;;;;5047711;28;20424;-69
2022/05/29 07:52:32;;;;;;;4.35;3.20;;;12.40;71.00;;;;;;5043291;28;21025;-70
2022/05/29 07:54:58;;;;;;;4.10;3.60;;;12.20;74.60;;;;;;5038897;28;20944;-69
2022/05/29 07:57:26;;;;;;;4.30;3.60;;;12.10;73.20;;;;;;5046526;28;20417;-69
2022/05/29 07:59:53;;;;;;;3.30;3.00;;;12.20;74.20;;;;;;5047459;28;20509;-69
2022/05/29 08:02:20;;;;;;;3.80;2.80;;;12.30;72.30;;;;;;5048842;28;20489;-69
2022/05/29 08:04:47;;;;;;;4.47;3.07;;;12.30;73.00;;;;;;5047610;28;20413;-69
2022/05/29 08:07:16;;;;;;;4.25;2.60;;;12.50;70.70;;;;;;5034914;28;20442;-68
2022/05/29 08:09:43;;;;;;;3.20;2.70;;;12.30;69.00;;;;;;5046830;28;21072;-69
2022/05/29 08:12:11;;;;;;;3.65;3.03;;;12.40;71.80;;;;;;5046581;28;20470;-69
2022/05/29 08:14:39;;;;;;;3.78;3.40;;;12.40;68.10;;;;;;5027679;28;20435;-69
2022/05/29 08:17:05;;;;;;;5.80;3.85;;;12.00;69.90;;;;;;5026609;28;20473;-69
2022/05/29 08:19:33;;;;;;;4.40;4.00;;;11.60;72.80;;;;;;5025366;28;20496;-69
2022/05/29 08:22:00;;;;;;;4.95;4.28;;;11.40;73.50;;;;;;5038589;28;20791;-69
2022/05/29 08:33:01;;;;;;;4.00;2.20;;;11.50;69.90;;;;;;5025295;28;20437;-69
2022/05/29 08:35:28;;;;;;;2.75;2.55;;;11.40;70.60;;;;;;5025551;28;20510;-69
2022/05/29 08:37:55;;;;;;;2.70;1.80;;;11.50;70.20;;;;;;5033723;28;20437;-69
2022/05/29 08:40:22;;;;;;;2.10;1.90;;;11.80;69.00;;;;;;5037919;28;20421;-69
2022/05/29 08:42:50;;;;;;;3.78;2.30;;;11.90;67.40;;;;;;5046096;28;20438;-68
2022/05/29 08:45:19;;;;;;;3.50;2.30;;;12.00;68.30;;;;;;5046689;28;20467;-68
2022/05/29 08:47:47;;;;;;;3.00;2.40;;;12.30;68.00;;;;;;5045827;28;20422;-68
2022/05/29 08:50:21;;;;;;;5.10;2.30;;;12.50;66.60;;;;;;5046626;28;20771;-69
2022/05/29 08:53:00;;;;;;;5.22;2.70;;;13.10;66.00;;;;;;5037549;28;20492;-68
2022/05/29 08:55:31;;;;;;;3.25;2.60;;;13.40;63.30;;;;;;5030411;28;20452;-68
2022/05/29 08:58:21;;;;;;;4.13;2.10;;;14.00;62.10;;;;;;5029853;28;20419;-68
2022/05/29 09:00:57;;;;;;;2.38;1.70;;;14.50;60.20;;;;;;5028454;28;20477;-69
2022/05/29 09:03:37;;;;;;;1.67;1.20;;;15.00;58.30;;;;;;5027342;28;20422;-68
2022/05/29 09:06:09;;;;;;;1.67;1.20;;;15.70;56.70;;;;;;5030158;28;20548;-69
2022/05/29 09:08:41;;;;;;;2.35;1.30;;;16.10;54.10;;;;;;5039486;28;20540;-68
2022/05/29 09:11:11;;;;;;;2.33;1.40;;;16.00;53.00;;;;;;5034384;28;20507;-69
2022/05/29 09:13:43;;;;;;;3.60;1.70;;;16.00;52.90;;;;;;5030271;28;20487;-69
2022/05/29 09:16:15;;;;;;;3.03;1.40;;;15.80;53.10;;;;;;5030140;28;20441;-69
2022/05/29 09:18:44;;;;;;;3.30;1.80;;;15.70;52.60;;;;;;5031432;28;20513;-69
2022/05/29 09:21:14;;;;;;;2.47;1.90;;;15.40;54.00;;;;;;5037179;28;20421;-69
2022/05/29 09:23:47;;;;;;;2.50;1.80;;;15.20;53.70;;;;;;5037930;28;20723;-69
2022/05/29 09:26:19;;;;;;;3.45;2.30;;;15.10;54.90;;;;;;5039469;28;20417;-69
2022/05/29 09:28:46;;;;;;;3.55;2.72;;;15.00;55.50;;;;;;5036880;28;20497;-68
2022/05/29 09:31:18;;;;;;;4.60;2.97;;;14.90;55.80;;;;;;5034806;28;20429;-68
2022/05/29 09:33:45;;;;;;;3.20;2.88;;;14.90;55.40;;;;;;5024650;28;20435;-69
2022/05/29 09:36:20;;;;;;;4.03;2.65;;;14.90;56.20;;;;;;5037044;28;20527;-67
2022/05/29 09:38:50;;;;;;;4.68;2.80;;;15.40;56.00;;;;;;5036867;28;20910;-68
2022/05/29 09:41:21;;;;;;;3.40;2.70;;;16.00;54.20;;;;;;5022948;28;20450;-68
2022/05/29 09:44:10;;;;;;;3.80;2.50;;;16.20;52.10;;;;;;5024004;28;20496;-68
2022/05/29 09:46:40;;;;;;;2.90;2.60;;;16.00;52.10;;;;;;5037059;28;21059;-68
2022/05/29 09:52:04;;;;;;;2.60;2.40;;;15.10;54.80;;;;;;5031976;28;20747;-69
2022/05/29 09:54:34;;;;;;;2.70;2.40;;;15.20;55.80;;;;;;5044468;28;20425;-69
2022/05/29 09:57:09;;;;;;;3.38;2.72;;;15.40;55.50;;;;;;5052157;28;20413;-69
2022/05/29 09:59:43;;;;;;;3.90;2.88;;;15.80;53.60;;;;;;5045699;28;20433;-68
2022/05/29 10:02:25;;;;;;;3.42;2.38;;;15.90;51.90;;;;;;5036537;28;20428;-68
2022/05/29 10:04:54;;;;;;;3.30;2.30;;;16.00;53.70;;;;;;5037036;28;20435;-68
2022/05/29 10:07:31;;;;;;;2.72;2.30;;;16.30;52.40;;;;;;5033447;28;20442;-69
2022/05/29 10:10:00;;;;;;;3.10;2.80;;;16.80;51.40;;;;;;5005277;28;20427;-68
2022/05/29 10:12:39;;;;;;;2.75;2.30;;;17.20;49.40;;;;;;5008664;28;20531;-68
2022/05/29 10:15:12;;;;;;;4.43;3.20;;;17.70;49.50;;;;;;5024618;28;20434;-69
2022/05/29 10:17:40;;;;;;;3.90;3.40;;;17.80;45.60;;;;;;5030560;28;20437;-69
2022/05/29 10:20:26;;;;;;;4.78;3.65;;;18.00;46.20;;;;;;5037797;28;20447;-69
2022/05/29 10:22:55;;;;;;;3.92;3.53;;;18.10;44.20;;;;;;5044123;28;20423;-69
2022/05/29 10:25:25;;;;;;;4.00;3.60;;;18.00;44.20;;;;;;5044130;28;20761;-70
2022/05/29 10:27:54;;;;;;;4.70;4.30;;;17.80;45.80;;;;;;5044057;28;20485;-70
2022/05/29 10:30:31;;;;;;;3.38;3.08;;;17.60;46.20;;;;;;5060257;22;20444;-69
2022/05/29 10:33:05;;;;;;;2.60;2.40;;;17.00;48.40;;;;;;5041562;28;20417;-69
2022/05/29 10:35:34;;;;;;;3.40;2.25;;;16.20;52.30;;;;;;5049650;28;20421;-69
2022/05/29 10:38:22;;;;;;;4.70;2.15;;;15.70;57.90;;;;;;5049364;28;20413;-69
2022/05/29 10:40:51;;;;;;;3.78;2.20;;;15.20;66.10;;;;;;5049261;28;20531;-69
2022/05/29 10:43:36;;;;;;;5.28;2.55;;;14.60;70.80;;;;;;5049204;28;20421;-69
2022/05/29 10:46:06;;;;;;;5.03;3.28;;;14.00;74.50;;;;;;5052344;28;20432;-70
2022/05/29 10:49:01;;;;;;;6.38;3.15;;;13.40;77.50;;;;;;5060585;28;20478;-68
2022/05/29 10:51:36;;;;;;;5.22;3.80;;;12.80;83.60;;;;;;5068396;28;20445;-69
2022/05/29 10:54:17;;;;;;;6.05;4.05;;;12.50;87.10;;;;;;5067924;28;20864;-68
2022/05/29 10:56:58;;;;;;;6.00;3.90;;;12.40;88.10;;;;;;5067930;28;20458;-68
2022/05/29 10:59:51;;;;;;;4.70;3.17;;;12.40;88.70;;;;;;5063453;28;20433;-68
2022/05/29 11:05:33;;;;;;;4.90;2.90;;;12.20;84.10;;;;;;5048292;28;20450;-68
2022/05/29 11:08:15;;;;;;;3.00;2.70;;;12.50;86.20;;;;;;5051750;28;20512;-67
2022/05/29 11:11:03;;;;;;;3.78;2.40;;;12.70;83.10;;;;;;5052056;28;20907;-68
2022/05/29 11:13:49;;;;;;;2.53;2.00;;;13.10;81.50;;;;;;5051439;28;20475;-68
2022/05/29 11:16:26;;;;;;;3.17;2.30;;;13.60;74.50;;;;;;5054725;28;20417;-68
2022/05/29 11:19:23;;;;;;;3.00;2.50;;;14.10;75.90;;;;;;5071978;28;20823;-68
2022/05/29 11:22:02;;;;;;;2.83;2.00;;;14.70;75.80;;;;;;5066829;28;20424;-67
2022/05/29 11:24:45;;;;;;;2.25;2.05;;;15.30;71.70;;;;;;5072126;28;20541;-67
2022/05/29 11:27:23;;;;;;;2.10;1.90;;;16.00;65.10;;;;;;5061005;28;20489;-68
2022/05/29 11:30:05;;;;;;;2.85;1.98;;;16.60;66.00;;;;;;5063610;28;20438;-67
2022/05/29 11:32:51;;;;;;;2.40;1.70;;;17.20;63.10;;;;;;5072084;28;20407;-67
2022/05/29 11:35:29;;;;;;;2.72;1.90;;;17.50;60.80;;;;;;5055058;28;20484;-68
2022/05/29 11:38:14;;;;;;;2.90;1.70;;;17.00;52.50;;;;;;5051005;28;20433;-66
2022/05/29 11:40:47;;;;;;;2.90;1.70;;;15.80;55.30;;;;;;5057435;28;20437;-68
2022/05/29 11:43:25;;;;;;;3.90;2.13;;;14.70;62.70;;;;;;5063038;28;20423;-68
2022/05/29 11:51:40;;;;;;;4.57;3.15;;;12.90;75.30;;;;;;5071461;28;20427;-68
2022/05/29 11:54:12;;;;;;;3.22;2.78;;;12.60;82.40;;;;;;5071192;28;20424;-68
2022/05/29 11:56:44;;;;;;;3.40;2.20;;;12.70;81.80;;;;;;5060692;28;21071;-67
2022/05/29 11:59:18;;;;;;;2.13;1.92;;;12.80;83.00;;;;;;5061367;28;20436;-68
2022/05/29 12:01:51;;;;;;;3.42;2.30;;;12.90;79.50;;;;;;5067362;28;20417;-68
2022/05/29 12:04:26;;;;;;;4.32;2.70;;;13.00;79.60;;;;;;5073469;28;20461;-68
2022/05/29 12:07:01;;;;;;;3.33;2.60;;;13.20;79.30;;;;;;5071053;28;20824;-68
2022/05/29 12:09:48;;;;;;;4.43;3.60;;;13.30;80.20;;;;;;5071198;28;20462;-68
2022/05/29 12:12:18;;;;;;;3.50;2.30;;;13.20;81.50;;;;;;5070860;28;20416;-68
2022/05/29 12:14:51;;;;;;;4.72;2.30;;;13.10;82.00;;;;;;5063411;28;20488;-69
2022/05/29 12:17:23;;;;;;;2.63;1.33;;;12.80;82.20;;;;;;5064351;28;20424;-68
2022/05/29 12:19:53;;;;;;;1.42;1.20;;;12.20;80.20;;;;;;5070919;28;20419;-68
2022/05/29 12:22:24;;;;;;;2.20;1.40;;;11.80;85.00;;;;;;5070995;28;20446;-70
2022/05/29 12:24:54;;;;;;;2.15;1.70;;;11.60;89.10;;;;;;5070995;28;20411;-70
2022/05/29 12:27:24;;;;;;;1.95;1.38;;;11.70;90.80;;;;;;5069405;28;20415;-67
2022/05/29 12:29:54;;;;;;;1.30;1.20;;;11.90;91.20;;;;;;5061542;28;20403;-68
2022/05/29 12:32:23;;;;;;;2.90;1.70;;;11.90;89.80;;;;;;5071049;28;20813;-68
2022/05/29 12:34:54;;;;;;;2.00;1.40;;;12.20;90.50;;;;;;5071485;28;20428;-68
2022/05/29 12:37:41;;;;;;;1.40;1.30;;;12.70;91.00;;;;;;5070774;28;20510;-68
2022/05/29 12:40:26;;;;;;;1.60;0.90;;;13.20;87.50;;;;;;5070955;28;20464;-68
2022/05/29 12:43:36;;;;;;;1.70;1.10;;;13.40;76.70;;;;;;5062906;28;20431;-68
2022/05/29 12:46:16;;;;;;;1.73;1.40;;;13.50;74.70;;;;;;5056533;28;20412;-67
2022/05/29 12:49:12;;;;;;;1.33;1.23;;;13.80;73.50;;;;;;5070129;28;20959;-67
2022/05/29 12:52:09;;;;;;;1.90;1.40;;;14.10;72.70;;;;;;5070874;28;20855;-68
2022/05/29 12:54:56;;;;;;;1.40;1.10;;;14.70;79.30;;;;;;5059324;28;20971;-68
2022/05/29 12:57:46;;;;;;;1.70;0.90;;;15.60;71.40;;;;;;5070505;28;20532;-68
2022/05/29 13:00:46;;;;;;;1.38;1.27;;;16.30;67.60;;;;;;5070620;28;20481;-68
2022/05/29 13:03:37;;;;;;;2.00;1.40;;;16.70;68.10;;;;;;5070586;28;20408;-67
2022/05/29 13:06:25;;;;;;;2.13;1.50;;;17.00;59.30;;;;;;5070843;28;20412;-67
2022/05/29 13:09:33;;;;;;;1.58;1.40;;;17.30;61.40;;;;;;5040675;28;20847;-68
2022/05/29 13:12:06;;;;;;;2.22;1.48;;;18.00;62.70;;;;;;5002274;28;20419;-69
2022/05/29 13:14:36;;;;;;;2.47;1.70;;;18.20;56.60;;;;;;5030816;28;21079;-69
2022/05/29 13:17:08;;;;;;;3.10;1.85;;;18.20;55.00;;;;;;5030763;28;20419;-70
2022/05/29 13:19:59;;;;;;;2.63;2.05;;;17.80;53.50;;;;;;5031152;28;20419;-70
2022/05/29 13:22:57;;;;;;;2.55;1.60;;;17.80;57.80;;;;;;5050346;28;20518;-70
2022/05/29 13:25:27;;;;;;;2.60;1.40;;;17.70;57.00;;;;;;5054449;28;20425;-69
2022/05/29 13:27:56;;;;;;;2.42;1.60;;;17.10;54.00;;;;;;5041410;28;21013;-69
2022/05/29 13:31:05;;;;;;;2.42;2.05;;;16.50;57.10;;;;;;5043364;28;20991;-69
2022/05/29 13:33:44;;;;;;;2.10;1.90;;;16.10;63.00;;;;;;5048252;28;20825;-68
2022/05/29 13:36:31;;;;;;;3.03;2.30;;;15.40;62.30;;;;;;5049686;28;20482;-68
2022/05/29 13:38:58;;;;;;;2.25;1.95;;;15.10;66.20;;;;;;5044761;28;20893;-67
2022/05/29 13:41:28;;;;;;;2.93;1.93;;;15.10;65.70;;;;;;5049765;28;20433;-68
2022/05/29 13:43:55;;;;;;;2.00;1.80;;;15.40;64.70;;;;;;5051316;28;20913;-69
2022/05/29 13:46:26;;;;;;;2.45;1.90;;;15.80;65.20;;;;;;5051541;28;20425;-69
2022/05/29 13:49:05;;;;;;;3.00;2.10;;;16.50;64.70;;;;;;5056324;28;20483;-69
2022/05/29 13:51:41;;;;;;;2.42;1.90;;;17.10;60.00;;;;;;5046426;28;20512;-68
2022/05/29 13:54:10;;;;;;;1.73;1.63;;;17.80;60.80;;;;;;5057241;28;20787;-69
2022/05/29 13:57:03;;;;;;;1.80;1.70;;;17.90;55.20;;;;;;5043856;28;20433;-68